Impacts METAR Board
IDs:

KMCO - Orlando Intl, FL, US

Updated at: 0700 UTC 20 Oct 2018
Potential Impact None Slight Moderate High
Time 19/19Z 19/20Z 19/21Z 19/22Z 19/23Z 20/00Z 20/01Z 20/02Z 20/03Z 20/04Z 20/05Z 20/06Z 20/07Z
Temp77 78 77 78 77 77 76 76 76 76 74 74 74
Dewpt75 75 74 73 73 72 72 73 72 73 73 73 72
Altim30.14 30.13 30.12 30.11 30.10 30.11 30.12 30.12 30.12 30.12 30.11 30.09 30.08
VIS1.5 10 8 10 10 10 10 10 10 10 10 10 10
CIG18 50 55 90 120 -- -- -- -- 18 -- -- --
CoverOVCBKNBKNBKNBKNFEWFEWFEWFEWBKNSCTFEWFEW
FltCatIFRVFRVFRVFRVFRVFRVFRVFRVFRMVFRVFRVFRVFR
WX+RA BR---RA--------------------
WDir30206080100707050507036010350
WSpd11 8 7 7 6 6 4 4 4 3 4 3 3
WGst-- -- -- -- -- -- -- -- -- -- -- -- --
Raw hourly METARs
KMCO 191856Z 03011KT 1 1/2SM +RA BR FEW010 BKN018CB OVC030 25/24 A3014 RMK AO2 WSHFT 1840 CB OHD MOV SW P0002 T02500239 $
KMCO 191953Z 02008KT 10SM SCT024 BKN050 26/24 A3013 RMK AO2 WSHFT 1840 RAE15 SLP200 VCSH SE AND W-NE P0007 T02560239
KMCO 192053Z 06007KT 8SM -RA FEW018 BKN055 BKN075 BKN150 25/23 A3012 RMK AO2 RAB27 SLP198 VIS NE 2 P0005 60067 T02500233 58006
KMCO 192153Z 08007KT 10SM FEW020 SCT060 BKN090 BKN200 26/23 A3011 RMK AO2 RAE23 SLP193 CB DSNT NE VCSH E S P0000 T02560228
KMCO 192253Z 10006KT 10SM FEW012 SCT090 BKN120 25/23 A3010 RMK AO2 SLP191 VIRGA SE T02500228
KMCO 192353Z 07006KT 10SM FEW090 FEW120 25/22 A3011 RMK AO2 SLP193 60067 T02500222 10294 20244 55004
KMCO 200053Z 07004KT 10SM FEW090 24/22 A3012 RMK AO2 SLP196 T02440222
KMCO 200153Z 05004KT 10SM FEW090 24/23 A3012 RMK AO2 SLP197 T02440228
KMCO 200253Z 05004KT 10SM FEW030 24/22 A3012 RMK AO2 SLP196 T02440222 50003
KMCO 200353Z 07003KT 10SM BKN018 24/23 A3012 RMK AO2 SLP196 T02440228
KMCO 200453Z 36004KT 10SM FEW020 SCT075 23/23 A3011 RMK AO2 SLP194 T02330228 403110228
KMCO 200553Z 01003KT 10SM FEW020 FEW075 23/23 A3009 RMK AO2 SLP189 T02330228 10250 20233 58008
KMCO 200653Z 35003KT 10SM FEW020 FEW075 23/22 A3008 RMK AO2 SLP183 T02330222



Page loaded:  07:20 UTC  |   12:20 AM Pacific  |   01:20 AM Mountain  |   02:20 AM Central  |   03:20 AM Eastern

 

ADVISORIES

FORECASTS

FORECASTS

OBSERVATIONS

USER TOOLS

ABOUT US